createdAt,value
2023-11-27T00:01:26.683Z,4.10
2023-11-27T00:03:54.351Z,4.30
2023-11-27T00:06:21.772Z,4.70
2023-11-27T00:08:49.029Z,4.20
2023-11-27T00:11:16.408Z,4.20
2023-11-27T00:13:43.740Z,4.10
2023-11-27T00:16:11.781Z,4.20
2023-11-27T00:18:39.550Z,4.00
2023-11-27T00:21:07.568Z,4.30
2023-11-27T00:23:34.886Z,4.30
2023-11-27T00:26:02.183Z,4.00
2023-11-27T00:28:29.430Z,4.20
2023-11-27T00:30:57.814Z,4.20
2023-11-27T00:33:25.704Z,4.30
2023-11-27T00:35:52.961Z,4.10
2023-11-27T00:38:20.776Z,4.20
2023-11-27T00:40:48.160Z,4.10
2023-11-27T00:43:15.499Z,4.30
2023-11-27T00:45:42.984Z,3.80
2023-11-27T00:48:10.655Z,3.80
2023-11-27T00:50:38.476Z,4.10
2023-11-27T00:53:05.796Z,4.10
2023-11-27T00:55:33.107Z,3.80
2023-11-27T00:58:00.442Z,4.20
2023-11-27T01:00:27.786Z,4.10
2023-11-27T01:02:55.282Z,4.20
2023-11-27T01:05:22.808Z,4.20
2023-11-27T01:07:50.148Z,4.10
2023-11-27T01:10:18.707Z,4.00
2023-11-27T01:12:48.119Z,3.90
2023-11-27T01:15:18.288Z,4.00
2023-11-27T01:17:45.592Z,3.80
2023-11-27T01:20:13.008Z,3.80
2023-11-27T01:22:40.323Z,3.70
2023-11-27T01:25:08.281Z,3.50
2023-11-27T01:27:36.440Z,4.10
2023-11-27T01:30:05.133Z,3.70
2023-11-27T01:32:32.852Z,3.80
2023-11-27T01:35:00.308Z,3.70
2023-11-27T01:37:28.012Z,4.00
2023-11-27T01:39:55.635Z,3.90
2023-11-27T01:42:22.974Z,3.90
2023-11-27T01:44:50.457Z,3.80
2023-11-27T01:47:17.757Z,3.80
2023-11-27T01:49:45.935Z,3.70
2023-11-27T01:52:13.976Z,3.90
2023-11-27T01:54:42.117Z,3.90
2023-11-27T01:57:09.542Z,3.70
2023-11-27T01:59:36.919Z,3.70
2023-11-27T02:02:05.776Z,3.60
2023-11-27T02:04:33.655Z,3.60
2023-11-27T02:07:01.074Z,3.90
2023-11-27T02:09:28.996Z,3.80
2023-11-27T02:11:56.334Z,3.40
2023-11-27T02:14:23.647Z,3.70
2023-11-27T02:16:51.004Z,3.70
2023-11-27T02:19:18.392Z,3.70
2023-11-27T02:21:46.730Z,3.70
2023-11-27T02:24:14.208Z,3.50
2023-11-27T02:26:41.492Z,3.80
2023-11-27T02:29:09.081Z,3.60
2023-11-27T02:31:36.511Z,3.60
2023-11-27T02:34:04.009Z,3.60
2023-11-27T02:36:36.731Z,3.80
2023-11-27T02:39:07.550Z,3.50
2023-11-27T02:41:38.517Z,3.40
2023-11-27T02:44:08.551Z,3.50
2023-11-27T02:46:36.824Z,3.30
2023-11-27T02:49:04.330Z,3.70
2023-11-27T02:51:31.717Z,3.60
2023-11-27T02:53:59.089Z,3.70
2023-11-27T02:56:26.512Z,3.50
2023-11-27T02:58:54.636Z,3.30
2023-11-27T03:01:25.411Z,3.50
2023-11-27T03:03:53.016Z,3.50
2023-11-27T03:06:20.624Z,3.70
2023-11-27T03:08:47.930Z,3.50
2023-11-27T03:11:15.761Z,3.30
2023-11-27T03:13:43.159Z,3.30
2023-11-27T03:16:10.663Z,3.40
2023-11-27T03:18:38.675Z,3.10
2023-11-27T03:21:06.586Z,3.30
2023-11-27T03:23:33.988Z,3.30
2023-11-27T03:26:03.034Z,3.40
2023-11-27T03:28:30.324Z,3.00
2023-11-27T03:30:57.764Z,3.20
2023-11-27T03:33:24.997Z,3.20
2023-11-27T03:35:52.527Z,3.40
2023-11-27T03:38:19.882Z,3.50
2023-11-27T03:40:47.158Z,3.40
2023-11-27T03:43:14.534Z,3.40
2023-11-27T03:45:42.550Z,3.60
2023-11-27T03:48:10.001Z,3.60
2023-11-27T03:50:37.288Z,3.60
2023-11-27T03:53:05.507Z,3.60
2023-11-27T03:55:32.822Z,3.50
2023-11-27T03:58:00.293Z,3.60
2023-11-27T04:00:27.706Z,3.60
2023-11-27T04:02:54.978Z,3.40
2023-11-27T04:05:22.675Z,3.60
2023-11-27T04:07:49.997Z,3.40
2023-11-27T04:10:18.367Z,3.40
2023-11-27T04:12:46.867Z,3.60
2023-11-27T04:15:15.440Z,3.20
2023-11-27T04:17:42.756Z,3.40
2023-11-27T04:20:12.907Z,3.40
2023-11-27T04:22:40.302Z,3.90
2023-11-27T04:25:08.168Z,3.60
2023-11-27T04:27:35.648Z,3.30
2023-11-27T04:30:06.019Z,3.60
2023-11-27T04:32:34.228Z,3.80
2023-11-27T04:35:01.654Z,3.80
2023-11-27T04:37:29.016Z,3.50
2023-11-27T04:39:56.433Z,3.60
2023-11-27T04:42:26.651Z,3.80
2023-11-27T04:44:54.050Z,3.70
2023-11-27T04:47:21.933Z,4.00
2023-11-27T04:49:49.326Z,3.70
2023-11-27T04:52:16.683Z,3.80
2023-11-27T04:54:44.027Z,3.70
2023-11-27T04:57:11.498Z,4.00
2023-11-27T04:59:38.808Z,3.70
2023-11-27T05:02:06.430Z,3.70
2023-11-27T05:04:35.180Z,4.00
2023-11-27T05:07:02.950Z,4.00
2023-11-27T05:09:33.168Z,3.80
2023-11-27T05:12:00.557Z,3.90
2023-11-27T05:14:27.878Z,4.20
2023-11-27T05:16:55.162Z,4.20
2023-11-27T05:19:22.565Z,4.30
2023-11-27T05:21:50.202Z,4.10
2023-11-27T05:24:17.469Z,4.30
2023-11-27T05:26:44.820Z,3.90
2023-11-27T05:29:13.003Z,4.10
2023-11-27T05:31:40.405Z,4.10
2023-11-27T05:34:09.126Z,4.30
2023-11-27T05:36:36.529Z,4.00
2023-11-27T05:39:07.018Z,4.30
2023-11-27T05:41:34.481Z,5.50
2023-11-27T05:44:04.002Z,4.60
2023-11-27T05:46:31.715Z,4.60
2023-11-27T05:49:02.681Z,4.10
2023-11-27T05:51:30.003Z,4.50
2023-11-27T05:53:57.911Z,4.60
2023-11-27T05:56:25.185Z,5.20
2023-11-27T05:58:52.499Z,4.20
2023-11-27T06:01:19.786Z,4.10
2023-11-27T06:03:47.260Z,4.50
2023-11-27T06:06:14.646Z,4.30
2023-11-27T06:08:42.943Z,4.50
2023-11-27T06:11:10.239Z,4.30
2023-11-27T06:13:37.599Z,3.90
2023-11-27T06:16:05.695Z,4.60
2023-11-27T06:19:47.661Z,4.70
2023-11-27T06:22:15.583Z,5.40
2023-11-27T06:24:43.058Z,5.40
2023-11-27T06:27:10.363Z,10.00
2023-11-27T06:29:37.709Z,6.00
2023-11-27T06:32:06.032Z,5.20
2023-11-27T06:34:33.540Z,5.70
2023-11-27T06:37:00.953Z,5.20
2023-11-27T06:39:28.379Z,6.10
2023-11-27T06:41:55.856Z,5.30
2023-11-27T06:44:23.150Z,5.00
2023-11-27T06:46:50.661Z,4.50
2023-11-27T06:49:18.176Z,4.80
2023-11-27T06:51:46.100Z,4.20
2023-11-27T06:54:14.084Z,4.40
2023-11-27T06:56:41.978Z,4.60
2023-11-27T06:59:09.355Z,5.00
2023-11-27T07:01:40.994Z,5.40
2023-11-27T07:04:09.362Z,4.80
2023-11-27T07:06:39.684Z,5.50
2023-11-27T07:09:07.339Z,6.50
2023-11-27T07:11:34.968Z,5.20
2023-11-27T07:14:02.891Z,5.30
2023-11-27T07:16:31.013Z,6.90
2023-11-27T07:18:58.807Z,6.50
2023-11-27T07:21:27.099Z,6.90
2023-11-27T07:23:55.031Z,6.60
2023-11-27T07:26:22.873Z,6.10
2023-11-27T07:28:50.222Z,6.90
2023-11-27T07:31:18.004Z,5.50
2023-11-27T07:33:45.884Z,5.80
2023-11-27T07:36:13.297Z,5.50
2023-11-27T07:38:43.807Z,6.60
2023-11-27T07:41:11.239Z,5.30
2023-11-27T07:43:39.580Z,6.20
2023-11-27T07:46:16.170Z,5.50
2023-11-27T07:48:43.827Z,6.00
2023-11-27T07:51:11.126Z,5.30
2023-11-27T07:53:38.407Z,5.60
2023-11-27T07:56:06.749Z,5.60
2023-11-27T07:58:34.133Z,6.00
2023-11-27T08:01:01.558Z,5.10
2023-11-27T08:03:29.008Z,4.90
2023-11-27T08:05:56.473Z,5.30
2023-11-27T08:08:23.809Z,5.10
2023-11-27T08:10:51.400Z,5.50
2023-11-27T08:13:20.409Z,5.10
2023-11-27T08:15:48.842Z,4.70
2023-11-27T08:18:16.225Z,5.80
2023-11-27T08:20:44.490Z,4.70
2023-11-27T08:23:13.824Z,5.80
2023-11-27T08:25:45.401Z,5.10
2023-11-27T08:28:13.380Z,4.50
2023-11-27T08:30:43.154Z,4.60
2023-11-27T08:33:10.746Z,4.20
2023-11-27T08:35:38.179Z,4.50
2023-11-27T08:38:05.912Z,4.10
2023-11-27T08:40:33.694Z,4.00
2023-11-27T08:43:01.727Z,4.10
2023-11-27T08:45:29.302Z,4.00
2023-11-27T08:47:56.962Z,4.30
2023-11-27T08:50:26.484Z,5.00
2023-11-27T08:52:59.957Z,4.10
2023-11-27T08:55:32.826Z,4.10
2023-11-27T18:38:44.953Z,6.20
2023-11-27T18:41:12.567Z,5.90
2023-11-27T18:43:40.358Z,6.60
2023-11-27T18:46:08.075Z,5.70
2023-11-27T18:48:35.590Z,6.50
2023-11-27T18:51:03.018Z,7.00
2023-11-27T18:53:30.309Z,6.70
2023-11-27T18:55:57.903Z,6.40
2023-11-27T18:58:26.109Z,6.90
2023-11-27T19:00:53.697Z,6.90
2023-11-27T19:03:21.285Z,7.10
2023-11-27T19:05:48.775Z,6.10
2023-11-27T19:08:16.116Z,6.30
2023-11-27T19:10:43.528Z,6.10
2023-11-27T19:13:12.720Z,6.70
2023-11-27T19:15:41.181Z,5.10
2023-11-27T19:18:08.874Z,5.70
2023-11-27T19:20:36.263Z,6.20
2023-11-27T19:23:04.526Z,8.20
2023-11-27T19:25:32.075Z,8.00
2023-11-27T19:27:59.436Z,5.90
2023-11-27T19:30:26.791Z,5.30
2023-11-27T19:32:54.196Z,5.30
2023-11-27T19:35:21.510Z,5.40
2023-11-27T19:37:49.474Z,5.90
2023-11-27T19:40:17.041Z,6.10
2023-11-27T19:42:44.334Z,6.50
2023-11-27T19:45:11.918Z,6.60
2023-11-27T19:47:39.424Z,7.00
2023-11-27T19:50:11.066Z,6.90
2023-11-27T19:52:38.706Z,6.60
2023-11-27T19:55:07.864Z,6.40
2023-11-27T19:57:35.543Z,7.40
2023-11-27T20:00:03.273Z,6.20
2023-11-27T20:05:06.984Z,5.70
2023-11-27T20:07:34.448Z,5.00
2023-11-27T20:10:02.630Z,4.80
2023-11-27T20:12:30.009Z,4.80
2023-11-27T20:14:57.302Z,4.80
2023-11-27T20:17:24.796Z,4.80
2023-11-27T20:19:53.576Z,4.90
2023-11-27T20:22:21.218Z,4.80
2023-11-27T20:24:49.102Z,4.90
2023-11-27T20:27:16.740Z,5.10
2023-11-27T20:29:46.058Z,5.00
2023-11-27T20:32:15.366Z,5.40
2023-11-27T20:34:42.977Z,4.90
2023-11-27T20:37:10.512Z,4.80
2023-11-27T20:39:37.868Z,5.10
2023-11-27T20:42:05.502Z,4.40
2023-11-27T20:44:39.107Z,4.90
2023-11-27T20:47:11.574Z,7.30
2023-11-27T20:49:39.058Z,5.60
2023-11-27T20:52:10.209Z,5.20
2023-11-27T20:54:46.915Z,4.90
2023-11-27T20:57:14.360Z,5.50
2023-11-27T20:59:42.064Z,5.60
2023-11-27T21:02:09.516Z,5.40
2023-11-27T21:04:42.490Z,5.60
2023-11-27T21:07:12.301Z,6.30
2023-11-27T21:09:39.936Z,5.30
2023-11-27T21:12:08.374Z,5.10
2023-11-27T21:14:35.747Z,5.70
2023-11-27T21:17:03.109Z,5.20
2023-11-27T21:19:30.921Z,5.50
2023-11-27T21:21:58.416Z,5.50
2023-11-27T21:24:27.730Z,5.30
2023-11-27T21:26:55.035Z,5.70
2023-11-27T21:29:23.269Z,6.00
2023-11-27T21:31:51.000Z,5.40
2023-11-27T21:34:18.421Z,5.50
2023-11-27T21:36:47.841Z,6.30
2023-11-27T21:39:15.645Z,7.00
2023-11-27T21:41:44.971Z,6.00
2023-11-27T21:44:12.404Z,6.40
2023-11-27T21:46:42.875Z,5.60
2023-11-27T21:49:10.317Z,5.90
2023-11-27T21:51:37.635Z,6.70
2023-11-27T21:54:07.680Z,5.90
2023-11-27T21:56:35.700Z,5.80
2023-11-27T21:59:03.176Z,5.60
2023-11-27T22:01:31.097Z,5.00
2023-11-27T22:03:58.763Z,6.10
2023-11-27T22:06:26.311Z,6.20
2023-11-27T22:08:53.706Z,6.20
2023-11-27T22:11:21.015Z,6.60
2023-11-27T22:13:48.326Z,6.00
2023-11-27T22:16:16.079Z,5.50
2023-11-27T22:18:43.725Z,5.90
2023-11-27T22:21:11.059Z,5.90
2023-11-27T22:23:38.404Z,5.90
2023-11-27T22:26:06.318Z,5.60
2023-11-27T22:28:34.623Z,5.60
2023-11-27T22:31:02.004Z,6.20
2023-11-27T22:33:29.312Z,5.70
2023-11-27T22:35:56.591Z,5.50
2023-11-27T22:38:23.879Z,5.50
2023-11-27T22:40:51.242Z,5.70
2023-11-27T22:43:18.617Z,5.70
2023-11-27T22:45:46.033Z,5.70
2023-11-27T22:48:13.354Z,5.70
2023-11-27T22:50:40.805Z,5.80
2023-11-27T22:53:08.113Z,5.70
2023-11-27T22:55:36.733Z,5.70
2023-11-27T22:58:04.165Z,5.40
2023-11-27T23:00:31.430Z,5.70
2023-11-27T23:02:58.841Z,5.10
2023-11-27T23:05:26.932Z,5.60
2023-11-27T23:07:54.269Z,4.90
2023-11-27T23:10:21.594Z,5.30
2023-11-27T23:12:49.026Z,5.30
2023-11-27T23:15:16.329Z,4.90
2023-11-27T23:17:43.855Z,5.60
2023-11-27T23:20:12.202Z,5.40
2023-11-27T23:22:39.531Z,5.70
2023-11-27T23:25:07.467Z,5.60
2023-11-27T23:27:34.814Z,5.80
2023-11-27T23:30:02.249Z,5.70
2023-11-27T23:32:30.602Z,5.90
2023-11-27T23:34:58.224Z,5.80
2023-11-27T23:37:25.551Z,5.70
2023-11-27T23:39:52.943Z,5.90
2023-11-27T23:42:20.227Z,6.20
2023-11-27T23:44:47.528Z,6.00
2023-11-27T23:47:14.884Z,5.80
2023-11-27T23:49:42.300Z,6.00
2023-11-27T23:52:09.657Z,6.10
2023-11-27T23:54:36.946Z,6.10
2023-11-27T23:57:04.716Z,5.80
2023-11-27T23:59:31.970Z,5.50
